createdAt,value
2023-06-11T00:00:45.837Z,0.00
2023-06-11T00:01:45.825Z,0.00
2023-06-11T00:02:45.981Z,0.00
2023-06-11T00:03:45.881Z,0.00
2023-06-11T00:04:45.941Z,0.00
2023-06-11T00:05:45.768Z,0.00
2023-06-11T00:06:45.889Z,0.00
2023-06-11T00:07:45.783Z,0.00
2023-06-11T00:08:45.777Z,0.00
2023-06-11T00:09:45.750Z,0.00
2023-06-11T00:10:45.825Z,0.00
2023-06-11T00:11:45.737Z,0.00
2023-06-11T00:12:45.755Z,0.00
2023-06-11T00:13:45.732Z,0.00
2023-06-11T00:14:45.733Z,0.00
2023-06-11T00:15:45.764Z,0.00
2023-06-11T00:16:45.819Z,0.00
2023-06-11T00:17:45.730Z,0.00
2023-06-11T00:18:45.724Z,0.00
2023-06-11T00:19:45.695Z,0.00
2023-06-11T00:20:45.695Z,0.00
2023-06-11T00:21:45.665Z,0.00
2023-06-11T00:22:45.699Z,0.00
2023-06-11T00:23:45.635Z,0.00
2023-06-11T00:24:45.635Z,0.00
2023-06-11T00:25:45.610Z,0.00
2023-06-11T00:26:45.633Z,0.00
2023-06-11T00:27:45.601Z,0.00
2023-06-11T00:28:45.606Z,0.00
2023-06-11T00:29:45.598Z,0.00
2023-06-11T00:30:45.608Z,0.00
2023-06-11T00:31:45.645Z,0.00
2023-06-11T00:32:45.633Z,0.00
2023-06-11T00:33:45.577Z,0.00
2023-06-11T00:34:45.562Z,0.00
2023-06-11T00:35:45.553Z,0.00
2023-06-11T00:36:45.553Z,0.00
2023-06-11T00:37:45.537Z,0.00
2023-06-11T00:38:45.530Z,0.00
2023-06-11T00:39:45.495Z,0.00
2023-06-11T00:40:45.527Z,0.00
2023-06-11T00:41:45.491Z,0.00
2023-06-11T00:42:45.490Z,0.00
2023-06-11T00:43:45.469Z,0.00
2023-06-11T00:44:45.506Z,0.00
2023-06-11T00:45:45.462Z,0.00
2023-06-11T00:46:45.449Z,0.00
2023-06-11T00:47:45.507Z,0.00
2023-06-11T00:48:45.447Z,0.00
2023-06-11T00:49:45.421Z,0.00
2023-06-11T00:50:45.467Z,0.00
2023-06-11T00:51:45.392Z,0.00
2023-06-11T00:52:45.397Z,0.00
2023-06-11T00:53:45.376Z,0.00
2023-06-11T00:54:45.371Z,0.00
2023-06-11T00:55:45.382Z,0.00
2023-06-11T00:56:45.401Z,0.00
2023-06-11T00:57:45.335Z,0.00
2023-06-11T00:58:45.391Z,0.00
2023-06-11T00:59:45.308Z,0.00
2023-06-11T01:00:45.364Z,0.00
2023-06-11T01:01:45.311Z,0.00
2023-06-11T01:02:45.342Z,0.00
2023-06-11T01:03:45.276Z,0.00
2023-06-11T01:04:45.382Z,0.00
2023-06-11T01:05:45.331Z,0.00
2023-06-11T01:06:45.281Z,0.00
2023-06-11T01:07:45.243Z,0.00
2023-06-11T01:08:45.275Z,0.00
2023-06-11T01:09:45.232Z,0.00
2023-06-11T01:10:45.251Z,0.00
2023-06-11T01:11:45.220Z,0.00
2023-06-11T01:12:45.264Z,0.00
2023-06-11T01:13:45.235Z,0.00
2023-06-11T01:14:45.241Z,0.00
2023-06-11T01:15:45.223Z,0.00
2023-06-11T01:16:45.196Z,0.00
2023-06-11T01:17:45.252Z,0.00
2023-06-11T01:18:45.186Z,0.00
2023-06-11T01:19:45.171Z,0.00
2023-06-11T01:20:45.161Z,0.00
2023-06-11T01:21:45.127Z,0.00
2023-06-11T01:22:45.169Z,0.00
2023-06-11T01:23:45.131Z,0.00
2023-06-11T01:24:45.128Z,0.00
2023-06-11T01:25:45.148Z,0.00
2023-06-11T01:26:45.112Z,0.00
2023-06-11T01:27:45.107Z,0.00
2023-06-11T01:28:45.102Z,0.00
2023-06-11T01:29:45.069Z,0.00
2023-06-11T01:30:45.091Z,0.00
2023-06-11T01:31:45.117Z,0.00
2023-06-11T01:32:45.087Z,0.00
2023-06-11T01:33:45.084Z,0.00
2023-06-11T01:34:45.065Z,0.00
2023-06-11T01:35:45.026Z,0.00
2023-06-11T01:36:45.050Z,0.00
2023-06-11T01:37:45.020Z,0.00
2023-06-11T01:38:45.037Z,0.00
2023-06-11T01:39:45.032Z,0.00
2023-06-11T01:40:44.990Z,0.00
2023-06-11T01:41:44.970Z,0.00
2023-06-11T01:42:45.002Z,0.00
2023-06-11T01:43:44.986Z,0.00
2023-06-11T01:44:44.977Z,0.00
2023-06-11T01:45:44.973Z,0.00
2023-06-11T01:46:45.000Z,0.00
2023-06-11T01:47:44.957Z,0.00
2023-06-11T01:48:44.932Z,0.00
2023-06-11T01:49:44.973Z,0.00
2023-06-11T01:50:44.908Z,0.00
2023-06-11T01:51:44.888Z,0.00
2023-06-11T01:52:44.893Z,0.00
2023-06-11T01:53:44.862Z,0.00
2023-06-11T01:54:44.908Z,0.00
2023-06-11T01:55:44.873Z,0.00
2023-06-11T01:56:44.854Z,0.00
2023-06-11T01:57:44.903Z,0.00
2023-06-11T01:58:44.850Z,0.00
2023-06-11T01:59:44.832Z,0.00
2023-06-11T02:00:44.862Z,0.00
2023-06-11T02:01:44.892Z,0.00
2023-06-11T02:02:44.948Z,0.00
2023-06-11T02:03:44.874Z,0.00
2023-06-11T02:04:44.790Z,0.00
2023-06-11T02:05:44.779Z,0.00
2023-06-11T02:06:44.792Z,0.00
2023-06-11T02:07:44.753Z,0.00
2023-06-11T02:08:44.814Z,0.00
2023-06-11T02:09:44.739Z,0.00
2023-06-11T02:10:44.759Z,0.00
2023-06-11T02:11:44.723Z,0.00
2023-06-11T02:12:44.729Z,0.00
2023-06-11T02:13:44.713Z,1.00
2023-06-11T02:14:44.791Z,1.00
2023-06-11T02:15:44.691Z,1.00
2023-06-11T02:16:44.720Z,1.00
2023-06-11T02:17:44.685Z,1.00
2023-06-11T02:18:44.684Z,1.00
2023-06-11T02:19:44.669Z,1.00
2023-06-11T02:20:44.703Z,1.00
2023-06-11T02:21:44.632Z,0.00
2023-06-11T02:22:44.686Z,0.00
2023-06-11T02:23:44.692Z,1.00
2023-06-11T02:24:44.665Z,1.00
2023-06-11T02:25:44.644Z,1.00
2023-06-11T02:26:44.631Z,1.00
2023-06-11T02:27:44.594Z,2.00
2023-06-11T02:28:44.592Z,1.00
2023-06-11T02:29:44.564Z,1.00
2023-06-11T02:30:44.578Z,2.00
2023-06-11T02:31:44.637Z,1.00
2023-06-11T02:32:44.618Z,2.00
2023-06-11T02:33:44.532Z,2.00
2023-06-11T02:34:44.538Z,3.00
2023-06-11T02:35:44.534Z,3.00
2023-06-11T02:36:44.556Z,5.00
2023-06-11T02:37:44.488Z,5.00
2023-06-11T02:38:44.513Z,5.00
2023-06-11T02:39:44.476Z,4.00
2023-06-11T02:40:44.487Z,5.00
2023-06-11T02:41:44.464Z,5.00
2023-06-11T02:42:44.481Z,5.00
2023-06-11T02:43:44.464Z,8.00
2023-06-11T02:44:44.461Z,9.00
2023-06-11T02:45:44.533Z,9.00
2023-06-11T02:46:44.475Z,9.00
2023-06-11T02:47:44.425Z,12.00
2023-06-11T02:48:44.418Z,13.00
2023-06-11T02:49:44.407Z,14.00
2023-06-11T02:50:44.429Z,18.00
2023-06-11T02:51:44.378Z,19.00
2023-06-11T02:52:44.402Z,20.00
2023-06-11T02:53:44.358Z,24.00
2023-06-11T02:54:44.410Z,26.00
2023-06-11T02:55:44.370Z,27.00
2023-06-11T02:56:44.349Z,30.00
2023-06-11T02:57:44.345Z,35.00
2023-06-11T02:58:44.332Z,36.00
2023-06-11T02:59:44.338Z,39.00
2023-06-11T03:00:44.316Z,45.00
2023-06-11T03:01:44.310Z,47.00
2023-06-11T03:02:44.357Z,51.00
2023-06-11T03:03:44.289Z,55.00
2023-06-11T03:04:44.280Z,58.00
2023-06-11T03:05:44.285Z,65.00
2023-06-11T03:06:44.257Z,70.00
2023-06-11T03:07:44.243Z,75.00
2023-06-11T03:08:44.273Z,78.00
2023-06-11T03:09:44.225Z,84.00
2023-06-11T03:10:44.230Z,91.00
2023-06-11T03:11:44.232Z,96.00
2023-06-11T03:12:44.216Z,104.00
2023-06-11T03:13:44.184Z,108.00
2023-06-11T03:14:44.198Z,116.00
2023-06-11T03:15:44.185Z,124.00
2023-06-11T03:16:44.185Z,132.00
2023-06-11T03:17:44.197Z,142.00
2023-06-11T03:18:44.171Z,151.00
2023-06-11T03:19:44.151Z,161.00
2023-06-11T03:20:44.148Z,169.00
2023-06-11T03:21:44.122Z,182.00
2023-06-11T03:22:44.153Z,191.00
2023-06-11T03:23:44.159Z,203.00
2023-06-11T03:24:44.108Z,215.00
2023-06-11T03:25:44.083Z,226.00
2023-06-11T03:26:44.093Z,239.00
2023-06-11T03:27:44.076Z,255.00
2023-06-11T03:28:44.095Z,277.00
2023-06-11T03:29:44.037Z,321.00
2023-06-11T03:30:44.116Z,371.00
2023-06-11T03:31:44.088Z,394.00
2023-06-11T03:32:44.076Z,410.00
2023-06-11T03:33:44.010Z,419.00
2023-06-11T03:34:44.597Z,448.00
2023-06-11T03:35:44.025Z,467.00
2023-06-11T03:36:44.046Z,502.00
2023-06-11T03:37:43.976Z,547.00
2023-06-11T03:38:43.994Z,576.00
2023-06-11T03:39:43.992Z,597.00
2023-06-11T03:40:43.979Z,620.00
2023-06-11T03:41:43.958Z,660.00
2023-06-11T03:42:43.970Z,697.00
2023-06-11T03:43:43.926Z,737.00
2023-06-11T03:44:43.927Z,795.00
2023-06-11T03:45:43.912Z,855.00
2023-06-11T03:46:43.970Z,909.00
2023-06-11T03:47:43.903Z,967.00
2023-06-11T03:48:43.903Z,1019.00
2023-06-11T03:49:43.877Z,1071.00
2023-06-11T03:50:43.952Z,1143.00
2023-06-11T03:51:43.868Z,1258.00
2023-06-11T03:52:43.888Z,1377.00
2023-06-11T03:53:43.841Z,1496.00
2023-06-11T03:54:43.857Z,1604.00
2023-06-11T03:55:43.876Z,1684.00
2023-06-11T03:56:43.836Z,1813.00
2023-06-11T03:57:43.814Z,1955.00
2023-06-11T03:58:43.817Z,2041.00
2023-06-11T03:59:43.789Z,2180.00
2023-06-11T04:00:43.810Z,2448.00
2023-06-11T04:01:43.807Z,2921.00
2023-06-11T04:02:43.873Z,3042.00
2023-06-11T04:03:43.871Z,3015.00
2023-06-11T04:04:43.823Z,3087.00
2023-06-11T04:05:43.747Z,3378.00
2023-06-11T04:06:43.774Z,3790.00
2023-06-11T04:07:43.722Z,4069.00
2023-06-11T04:08:43.734Z,4256.00
2023-06-11T04:09:43.716Z,4184.00
2023-06-11T04:10:43.761Z,4113.00
2023-06-11T04:11:43.709Z,4054.00
2023-06-11T04:12:43.732Z,4022.00
2023-06-11T04:13:43.687Z,4303.00
2023-06-11T04:14:43.702Z,4857.00
2023-06-11T04:15:43.697Z,5282.00
2023-06-11T04:16:43.694Z,5409.00
2023-06-11T04:17:43.677Z,5278.00
2023-06-11T04:18:43.644Z,5298.00
2023-06-11T04:19:43.651Z,5410.00
2023-06-11T04:20:43.652Z,5441.00
2023-06-11T04:21:43.613Z,5443.00
2023-06-11T04:22:43.650Z,5413.00
2023-06-11T04:23:43.656Z,5282.00
2023-06-11T04:24:43.600Z,5393.00
2023-06-11T04:25:43.581Z,5486.00
2023-06-11T04:26:43.584Z,5462.00
2023-06-11T04:27:43.566Z,5764.00
2023-06-11T04:28:43.596Z,6035.00
2023-06-11T04:29:43.538Z,5895.00
2023-06-11T04:30:43.549Z,6048.00
2023-06-11T04:31:43.575Z,6408.00
2023-06-11T04:32:43.562Z,6270.00
2023-06-11T04:33:43.515Z,5920.00
2023-06-11T04:34:43.533Z,6086.00
2023-06-11T04:35:43.495Z,6579.00
2023-06-11T04:36:43.509Z,7365.00
2023-06-11T04:37:43.504Z,7191.00
2023-06-11T04:38:43.480Z,6951.00
2023-06-11T04:39:43.472Z,7507.00
2023-06-11T04:40:43.542Z,7589.00
2023-06-11T04:41:43.444Z,7088.00
2023-06-11T04:42:43.454Z,7187.00
2023-06-11T04:43:43.439Z,7352.00
2023-06-11T04:44:43.443Z,7286.00
2023-06-11T04:45:43.438Z,7154.00
2023-06-11T04:46:43.471Z,7276.00
2023-06-11T04:47:43.412Z,7742.00
2023-06-11T04:48:43.403Z,7900.00
2023-06-11T04:49:43.406Z,7535.00
2023-06-11T04:50:43.390Z,8049.00
2023-06-11T04:51:43.401Z,8363.00
2023-06-11T04:52:43.389Z,8063.00
2023-06-11T04:53:43.397Z,8218.00
2023-06-11T04:54:43.427Z,8152.00
2023-06-11T04:55:43.385Z,7502.00
2023-06-11T04:56:43.394Z,7157.00
2023-06-11T04:57:43.346Z,7183.00
2023-06-11T04:58:43.375Z,7608.00
2023-06-11T04:59:43.313Z,8353.00
2023-06-11T05:00:43.337Z,8749.00
2023-06-11T05:01:43.419Z,8501.00
2023-06-11T05:02:43.338Z,8763.00
2023-06-11T05:03:43.414Z,8586.00
2023-06-11T05:04:43.322Z,8535.00
2023-06-11T05:05:43.345Z,8760.00
2023-06-11T05:06:43.270Z,8442.00
2023-06-11T05:07:43.289Z,8060.00
2023-06-11T05:08:43.268Z,8238.00
2023-06-11T05:09:45.844Z,7978.00
2023-06-11T05:10:43.280Z,7772.00
2023-06-11T05:11:43.233Z,7829.00
2023-06-11T05:12:43.259Z,7783.00
2023-06-11T05:13:43.217Z,7900.00
2023-06-11T05:14:43.248Z,9430.00
2023-06-11T05:15:43.244Z,9053.00
2023-06-11T05:16:43.306Z,8470.00
2023-06-11T05:17:43.363Z,9012.00
2023-06-11T05:18:43.211Z,8859.00
2023-06-11T05:19:43.197Z,9631.00
2023-06-11T05:20:43.181Z,10080.00
2023-06-11T05:21:43.184Z,10317.00
2023-06-11T05:22:43.192Z,10383.00
2023-06-11T05:23:43.150Z,9839.00
2023-06-11T05:24:43.166Z,9336.00
2023-06-11T05:25:43.124Z,9398.00
2023-06-11T05:26:43.222Z,10226.00
2023-06-11T05:27:43.152Z,10240.00
2023-06-11T05:28:43.136Z,10079.00
2023-06-11T05:29:45.899Z,9885.00
2023-06-11T05:30:43.102Z,9575.00
2023-06-11T05:31:43.213Z,9323.00
2023-06-11T05:32:43.173Z,9313.00
2023-06-11T05:33:43.064Z,8703.00
2023-06-11T05:34:43.099Z,8738.00
2023-06-11T05:35:43.115Z,8587.00
2023-06-11T05:36:43.074Z,8421.00
2023-06-11T05:37:43.055Z,8979.00
2023-06-11T05:38:43.079Z,9234.00
2023-06-11T05:39:43.087Z,9049.00
2023-06-11T05:40:43.071Z,9087.00
2023-06-11T05:41:43.017Z,9269.00
2023-06-11T05:42:43.041Z,10359.00
2023-06-11T05:43:43.008Z,10582.00
2023-06-11T05:44:43.033Z,10315.00
2023-06-11T05:45:43.013Z,10299.00
2023-06-11T05:46:43.131Z,9687.00
2023-06-11T05:47:43.063Z,9636.00
2023-06-11T05:48:43.049Z,9913.00
2023-06-11T05:49:43.000Z,10248.00
2023-06-11T05:50:42.969Z,10460.00
2023-06-11T05:51:42.928Z,11059.00
2023-06-11T05:52:42.955Z,11452.00
2023-06-11T05:53:42.930Z,10961.00
2023-06-11T05:54:42.953Z,10361.00
2023-06-11T05:55:42.941Z,9949.00
2023-06-11T05:56:42.960Z,9949.00
2023-06-11T05:57:42.900Z,9882.00
2023-06-11T05:58:42.898Z,8903.00
2023-06-11T05:59:42.895Z,8313.00
2023-06-11T06:00:42.932Z,8253.00
2023-06-11T06:01:42.884Z,8114.00
2023-06-11T06:02:42.954Z,8071.00
2023-06-11T06:03:42.956Z,8033.00
2023-06-11T06:04:42.893Z,7979.00
2023-06-11T06:05:42.827Z,8030.00
2023-06-11T06:06:42.845Z,8053.00
2023-06-11T06:07:42.835Z,8105.00
2023-06-11T06:08:45.474Z,8174.00
2023-06-11T06:09:42.792Z,8264.00
2023-06-11T06:10:42.802Z,8348.00
2023-06-11T06:11:42.781Z,8385.00
2023-06-11T06:12:42.825Z,8361.00
2023-06-11T06:13:42.786Z,8326.00
2023-06-11T06:14:42.820Z,8355.00
2023-06-11T06:15:42.770Z,8394.00
2023-06-11T06:16:42.807Z,8438.00
2023-06-11T06:17:42.838Z,8436.00
2023-06-11T06:18:42.774Z,8489.00
2023-06-11T06:19:42.740Z,8561.00
2023-06-11T06:20:42.765Z,8641.00
2023-06-11T06:21:42.703Z,8826.00
2023-06-11T06:22:42.797Z,8907.00
2023-06-11T06:23:42.798Z,8777.00
2023-06-11T06:24:42.714Z,8596.00
2023-06-11T06:25:42.711Z,8553.00
2023-06-11T06:26:42.687Z,8607.00
2023-06-11T06:27:42.686Z,8723.00
2023-06-11T06:28:42.671Z,8829.00
2023-06-11T06:29:42.655Z,8823.00
2023-06-11T06:30:42.691Z,8776.00
2023-06-11T06:31:42.734Z,8826.00
2023-06-11T06:32:42.657Z,8842.00
2023-06-11T06:33:42.634Z,8836.00
2023-06-11T06:34:42.628Z,8865.00
2023-06-11T06:35:42.659Z,9685.00
2023-06-11T06:36:42.644Z,11108.00
2023-06-11T06:37:42.608Z,11431.00
2023-06-11T06:38:42.623Z,11429.00
2023-06-11T06:39:42.580Z,11346.00
2023-06-11T06:40:42.591Z,11353.00
2023-06-11T06:41:42.581Z,11150.00
2023-06-11T06:42:42.582Z,11119.00
2023-06-11T06:43:42.555Z,10745.00
2023-06-11T06:44:42.562Z,10698.00
2023-06-11T06:45:42.556Z,10778.00
2023-06-11T06:46:42.555Z,10493.00
2023-06-11T06:47:42.566Z,10799.00
2023-06-11T06:48:42.608Z,10978.00
2023-06-11T06:49:42.525Z,11057.00
2023-06-11T06:50:42.528Z,10849.00
2023-06-11T06:51:42.509Z,10535.00
2023-06-11T06:52:42.521Z,10978.00
2023-06-11T06:53:42.494Z,11214.00
2023-06-11T06:54:42.481Z,10925.00
2023-06-11T06:55:42.479Z,10551.00
2023-06-11T06:56:42.482Z,9988.00
2023-06-11T06:57:42.481Z,9588.00
2023-06-11T06:58:42.452Z,9563.00
2023-06-11T06:59:42.449Z,9496.00
2023-06-11T07:00:42.447Z,9344.00
2023-06-11T07:01:42.624Z,8821.00
2023-06-11T07:02:43.028Z,8729.00
2023-06-11T07:03:42.433Z,8696.00
2023-06-11T07:04:42.440Z,8666.00
2023-06-11T07:05:42.464Z,8669.00
2023-06-11T07:06:42.396Z,8609.00
2023-06-11T07:07:43.678Z,8635.00
2023-06-11T07:08:42.411Z,8776.00
2023-06-11T07:09:42.376Z,8893.00
2023-06-11T07:10:42.408Z,8938.00
2023-06-11T07:11:42.351Z,9011.00
2023-06-11T07:12:42.394Z,9037.00
2023-06-11T07:13:42.326Z,8973.00
2023-06-11T07:14:42.379Z,8889.00
2023-06-11T07:15:42.362Z,8872.00
2023-06-11T07:16:42.430Z,8875.00
2023-06-11T07:17:42.331Z,8853.00
2023-06-11T07:18:42.336Z,8841.00
2023-06-11T07:19:42.335Z,8860.00
2023-06-11T07:20:42.327Z,8887.00
2023-06-11T07:21:42.279Z,8928.00
2023-06-11T07:22:42.484Z,9023.00
2023-06-11T07:23:42.322Z,9126.00
2023-06-11T07:24:42.281Z,9184.00
2023-06-11T07:25:42.255Z,9310.00
2023-06-11T07:26:42.267Z,9438.00
2023-06-11T07:27:42.234Z,9612.00
2023-06-11T07:28:42.266Z,9649.00
2023-06-11T07:29:42.274Z,9642.00
2023-06-11T07:30:42.272Z,9528.00
2023-06-11T07:31:42.291Z,9445.00
2023-06-11T07:32:42.281Z,9374.00
2023-06-11T07:33:42.195Z,9343.00
2023-06-11T07:34:42.411Z,9251.00
2023-06-11T07:35:42.170Z,9259.00
2023-06-11T07:36:42.236Z,9163.00
2023-06-11T07:37:42.205Z,8971.00
2023-06-11T07:38:42.184Z,8845.00
2023-06-11T07:39:42.156Z,8826.00
2023-06-11T07:40:42.191Z,8790.00
2023-06-11T07:41:42.184Z,8748.00
2023-06-11T07:42:42.155Z,8685.00
2023-06-11T07:43:42.221Z,8654.00
2023-06-11T07:44:42.171Z,8626.00
2023-06-11T07:45:42.141Z,8613.00
2023-06-11T07:46:42.229Z,8629.00
2023-06-11T07:47:42.163Z,8633.00
2023-06-11T07:48:42.115Z,8643.00
2023-06-11T07:49:42.116Z,8638.00
2023-06-11T07:50:42.097Z,8642.00
2023-06-11T07:51:42.082Z,8632.00
2023-06-11T07:52:42.085Z,8613.00
2023-06-11T07:53:42.050Z,8629.00
2023-06-11T07:54:42.070Z,8631.00
2023-06-11T07:55:42.062Z,8633.00
2023-06-11T07:56:42.055Z,8612.00
2023-06-11T07:57:42.073Z,8606.00
2023-06-11T07:58:42.027Z,8605.00
2023-06-11T07:59:42.028Z,8600.00
2023-06-11T08:00:42.067Z,8613.00
2023-06-11T08:01:42.385Z,8625.00
2023-06-11T08:02:42.346Z,8618.00
2023-06-11T08:03:42.006Z,8593.00
2023-06-11T08:04:41.998Z,8590.00
2023-06-11T08:05:42.023Z,8568.00
2023-06-11T08:06:42.015Z,8550.00
2023-06-11T08:07:41.986Z,8557.00
2023-06-11T08:08:41.981Z,8589.00
2023-06-11T08:09:41.959Z,8589.00
2023-06-11T08:10:41.989Z,8567.00
2023-06-11T08:11:41.972Z,8564.00
2023-06-11T08:12:42.066Z,8554.00
2023-06-11T08:13:41.922Z,8535.00
2023-06-11T08:14:41.944Z,8579.00
2023-06-11T08:15:41.928Z,8604.00
2023-06-11T08:16:42.092Z,8674.00
2023-06-11T08:17:42.017Z,8647.00
2023-06-11T08:18:41.928Z,8624.00
2023-06-11T08:19:41.891Z,8590.00
2023-06-11T08:20:41.921Z,8590.00
2023-06-11T08:21:41.896Z,8643.00
2023-06-11T08:22:41.914Z,8702.00
2023-06-11T08:23:41.861Z,8665.00
2023-06-11T08:24:41.857Z,8632.00
2023-06-11T08:25:41.870Z,8580.00
2023-06-11T08:26:41.934Z,8551.00
2023-06-11T08:27:41.843Z,8537.00
2023-06-11T08:28:41.838Z,8557.00
2023-06-11T08:29:41.819Z,8563.00
2023-06-11T08:30:41.849Z,8483.00
2023-06-11T08:31:41.898Z,8416.00
2023-06-11T08:32:41.828Z,8401.00
2023-06-11T08:33:44.442Z,8387.00
2023-06-11T08:34:41.813Z,8422.00
2023-06-11T08:35:41.864Z,8458.00
2023-06-11T08:36:41.801Z,8492.00
2023-06-11T08:37:41.774Z,8538.00
2023-06-11T08:38:41.894Z,8558.00
2023-06-11T08:39:41.796Z,8636.00
2023-06-11T08:40:41.769Z,8839.00
2023-06-11T08:41:41.776Z,9022.00
2023-06-11T08:42:41.800Z,9169.00
2023-06-11T08:43:41.728Z,9443.00
2023-06-11T08:44:41.728Z,9963.00
2023-06-11T08:45:41.815Z,10363.00
2023-06-11T08:46:41.760Z,10439.00
2023-06-11T08:47:41.724Z,10452.00
2023-06-11T08:48:41.733Z,10487.00
2023-06-11T08:49:41.782Z,10174.00
2023-06-11T08:50:41.692Z,9988.00
2023-06-11T08:51:41.662Z,10076.00
2023-06-11T08:52:41.680Z,9597.00
2023-06-11T08:53:41.676Z,9173.00
2023-06-11T08:54:41.699Z,9183.00
2023-06-11T08:55:41.632Z,8892.00
2023-06-11T08:56:41.692Z,8797.00
2023-06-11T08:57:41.625Z,8756.00
2023-06-11T08:58:41.640Z,8655.00
2023-06-11T08:59:41.612Z,8611.00
2023-06-11T09:00:41.641Z,8500.00
2023-06-11T09:01:41.900Z,8412.00
2023-06-11T09:02:41.656Z,8328.00
2023-06-11T09:03:41.633Z,8201.00
2023-06-11T09:04:41.869Z,8100.00
2023-06-11T09:05:41.591Z,8159.00
2023-06-11T09:06:41.684Z,8037.00
2023-06-11T09:07:41.557Z,7860.00
2023-06-11T09:08:41.568Z,7792.00
2023-06-11T09:09:41.551Z,7868.00
2023-06-11T09:10:41.554Z,7957.00
2023-06-11T09:11:41.530Z,7709.00
2023-06-11T09:12:41.678Z,7692.00
2023-06-11T09:13:41.554Z,7719.00
2023-06-11T09:14:41.520Z,7725.00
2023-06-11T09:15:41.517Z,7604.00
2023-06-11T09:16:41.699Z,3399.00
2023-06-11T09:17:41.546Z,5828.00
2023-06-11T09:18:41.493Z,7526.00
2023-06-11T09:19:41.479Z,7463.00
2023-06-11T09:20:41.483Z,7364.00
2023-06-11T09:21:41.473Z,7321.00
2023-06-11T09:22:41.493Z,7298.00
2023-06-11T09:23:41.465Z,7164.00
2023-06-11T09:24:41.475Z,7132.00
2023-06-11T09:25:41.485Z,7154.00
2023-06-11T09:26:41.460Z,7077.00
2023-06-11T09:27:41.424Z,6993.00
2023-06-11T09:28:41.441Z,6958.00
2023-06-11T09:29:41.419Z,6904.00
2023-06-11T09:30:41.437Z,6808.00
2023-06-11T09:31:42.694Z,6739.00
2023-06-11T09:32:41.594Z,6703.00
2023-06-11T09:33:41.498Z,6687.00
2023-06-11T09:34:41.439Z,6612.00
2023-06-11T09:35:41.376Z,6552.00
2023-06-11T09:36:42.640Z,6530.00
2023-06-11T09:37:41.471Z,6460.00
2023-06-11T09:38:41.373Z,6450.00
2023-06-11T09:39:41.445Z,6570.00
2023-06-11T09:40:41.382Z,6541.00
2023-06-11T09:41:41.342Z,6480.00
2023-06-11T09:42:41.383Z,6351.00
2023-06-11T09:43:41.324Z,6304.00
2023-06-11T09:44:41.583Z,6251.00
2023-06-11T09:45:41.400Z,6159.00
2023-06-11T09:46:41.320Z,6084.00
2023-06-11T09:47:41.356Z,6047.00
2023-06-11T09:48:41.363Z,5980.00
2023-06-11T09:49:41.405Z,5925.00
2023-06-11T09:50:41.325Z,5867.00
2023-06-11T09:51:41.274Z,5767.00
2023-06-11T09:52:41.280Z,5742.00
2023-06-11T09:53:41.301Z,5706.00
2023-06-11T09:54:41.273Z,5642.00
2023-06-11T09:55:41.436Z,5577.00
2023-06-11T09:56:41.263Z,5535.00
2023-06-11T09:57:41.373Z,5526.00
2023-06-11T09:58:41.232Z,5508.00
2023-06-11T09:59:41.259Z,5469.00
2023-06-11T10:00:41.269Z,5394.00
2023-06-11T10:01:41.283Z,5364.00
2023-06-11T10:02:41.312Z,5324.00
2023-06-11T10:03:41.357Z,5282.00
2023-06-11T10:04:41.221Z,5286.00
2023-06-11T10:05:41.197Z,5289.00
2023-06-11T10:06:41.193Z,5277.00
2023-06-11T10:07:41.172Z,5269.00
2023-06-11T10:08:41.272Z,5266.00
2023-06-11T10:09:41.168Z,5240.00
2023-06-11T10:10:41.259Z,5219.00
2023-06-11T10:11:41.205Z,5234.00
2023-06-11T10:12:41.165Z,5214.00
2023-06-11T10:13:41.150Z,5173.00
2023-06-11T10:14:41.180Z,5088.00
2023-06-11T10:15:41.195Z,5013.00
2023-06-11T10:16:41.220Z,4955.00
2023-06-11T10:17:43.667Z,4894.00
2023-06-11T10:18:41.196Z,4831.00
2023-06-11T10:19:41.262Z,4805.00
2023-06-11T10:20:41.128Z,4802.00
2023-06-11T10:21:41.107Z,4811.00
2023-06-11T10:22:41.126Z,4711.00
2023-06-11T10:23:41.076Z,3529.00
2023-06-11T10:24:41.100Z,4640.00
2023-06-11T10:25:41.139Z,4559.00
2023-06-11T10:26:41.078Z,4693.00
2023-06-11T10:27:41.057Z,4652.00
2023-06-11T10:28:41.117Z,4609.00
2023-06-11T10:29:41.055Z,2573.00
2023-06-11T10:30:41.073Z,4643.00
2023-06-11T10:31:41.024Z,4596.00
2023-06-11T10:32:41.124Z,4545.00
2023-06-11T10:33:41.030Z,4494.00
2023-06-11T10:34:41.240Z,4450.00
2023-06-11T10:35:41.036Z,4402.00
2023-06-11T10:36:41.023Z,4341.00
2023-06-11T10:37:41.016Z,4286.00
2023-06-11T10:38:41.104Z,4294.00
2023-06-11T10:39:40.962Z,4304.00
2023-06-11T10:40:40.983Z,4335.00
2023-06-11T10:41:40.961Z,4374.00
2023-06-11T10:42:40.995Z,4360.00
2023-06-11T10:43:40.973Z,4292.00
2023-06-11T10:44:40.961Z,4251.00
2023-06-11T10:45:40.934Z,4196.00
2023-06-11T10:46:41.018Z,4128.00
2023-06-11T10:47:40.951Z,4050.00
2023-06-11T10:48:40.961Z,4012.00
2023-06-11T10:49:40.915Z,3985.00
2023-06-11T10:50:40.919Z,3948.00
2023-06-11T10:51:40.954Z,3912.00
2023-06-11T10:52:41.136Z,3896.00
2023-06-11T10:53:40.870Z,3856.00
2023-06-11T10:54:40.909Z,3818.00
2023-06-11T10:55:40.897Z,3792.00
2023-06-11T10:56:40.922Z,3780.00
2023-06-11T10:57:40.855Z,3780.00
2023-06-11T10:58:40.876Z,3748.00
2023-06-11T10:59:40.867Z,3728.00
2023-06-11T11:00:40.850Z,3702.00
2023-06-11T11:01:40.914Z,3679.00
2023-06-11T11:02:40.918Z,3663.00
2023-06-11T11:03:40.966Z,3625.00
2023-06-11T11:04:40.826Z,3619.00
2023-06-11T11:05:40.800Z,3589.00
2023-06-11T11:06:40.813Z,3579.00
2023-06-11T11:07:40.805Z,3565.00
2023-06-11T11:08:40.788Z,3561.00
2023-06-11T11:09:40.771Z,3527.00
2023-06-11T11:10:40.778Z,3513.00
2023-06-11T11:11:40.788Z,3497.00
2023-06-11T11:12:40.802Z,3488.00
2023-06-11T11:13:40.739Z,3466.00
2023-06-11T11:14:40.758Z,3441.00
2023-06-11T11:15:40.723Z,3429.00
2023-06-11T11:16:40.800Z,3426.00
2023-06-11T11:17:40.730Z,3435.00
2023-06-11T11:18:40.731Z,3444.00
2023-06-11T11:19:40.733Z,3463.00
2023-06-11T11:20:40.750Z,3465.00
2023-06-11T11:21:40.759Z,3458.00
2023-06-11T11:22:40.710Z,3426.00
2023-06-11T11:23:40.821Z,3396.00
2023-06-11T11:24:41.055Z,3397.00
2023-06-11T11:25:40.652Z,3371.00
2023-06-11T11:26:40.667Z,3340.00
2023-06-11T11:27:40.721Z,3320.00
2023-06-11T11:28:40.688Z,3284.00
2023-06-11T11:29:40.689Z,3245.00
2023-06-11T11:30:40.658Z,3233.00
2023-06-11T11:31:40.637Z,3213.00
2023-06-11T11:32:40.647Z,3193.00
2023-06-11T11:33:40.649Z,3178.00
2023-06-11T11:34:40.623Z,3162.00
2023-06-11T11:35:40.687Z,3138.00
2023-06-11T11:36:40.599Z,3122.00
2023-06-11T11:37:40.593Z,3116.00
2023-06-11T11:38:40.607Z,3109.00
2023-06-11T11:39:40.562Z,3100.00
2023-06-11T11:40:40.605Z,3112.00
2023-06-11T11:41:40.588Z,3110.00
2023-06-11T11:42:40.579Z,3097.00
2023-06-11T11:43:40.548Z,3080.00
2023-06-11T11:44:40.628Z,3077.00
2023-06-11T11:45:40.599Z,3058.00
2023-06-11T11:46:40.559Z,3042.00
2023-06-11T11:47:40.571Z,3038.00
2023-06-11T11:48:40.525Z,3023.00
2023-06-11T11:49:40.501Z,3008.00
2023-06-11T11:50:40.553Z,2993.00
2023-06-11T11:51:40.496Z,2978.00
2023-06-11T11:52:40.514Z,2972.00
2023-06-11T11:53:40.495Z,2964.00
2023-06-11T11:54:40.505Z,2963.00
2023-06-11T11:56:40.578Z,2952.00
2023-06-11T11:57:40.465Z,2928.00
2023-06-11T11:58:40.530Z,2938.00
2023-06-11T11:59:40.455Z,2934.00
2023-06-11T12:00:40.441Z,2914.00
2023-06-11T12:01:40.431Z,2894.00
2023-06-11T12:02:40.603Z,2913.00
2023-06-11T12:03:40.682Z,2907.00
2023-06-11T12:04:40.480Z,2922.00
2023-06-11T12:05:40.422Z,2905.00
2023-06-11T12:06:40.436Z,2888.00
2023-06-11T12:07:40.542Z,2867.00
2023-06-11T12:08:40.379Z,2838.00
2023-06-11T12:09:40.451Z,2831.00
2023-06-11T12:10:40.390Z,2817.00
2023-06-11T12:11:51.926Z,2837.00
2023-06-11T12:12:41.363Z,2856.00
2023-06-11T12:13:40.440Z,2836.00
2023-06-11T12:14:40.345Z,2813.00
2023-06-11T12:15:40.323Z,2810.00
2023-06-11T12:16:40.362Z,2797.00
2023-06-11T12:17:40.312Z,2780.00
2023-06-11T12:18:40.333Z,2778.00
2023-06-11T12:19:40.291Z,2759.00
2023-06-11T12:20:40.319Z,2746.00
2023-06-11T12:21:40.278Z,2749.00
2023-06-11T12:22:40.303Z,2738.00
2023-06-11T12:23:40.301Z,2753.00